Time;durP1;ratioP1;P1;durP2;ratioP2;P2;SDS_P1;SDS_P2;PMS_P1;PMS_P2;Temp;Humidity;BMP_temperature;BMP_pressure;BME280_temperature;BME280_humidity;BME280_pressure;Samples;Min_cycle;Max_cycle;Signal;HPM_P1;HPM_P2
2022/09/17 00:01:36;;;;;;;1.23;0.10;;;;;;;13.77;72.92;99699.25;4825255;29;20054;-77
2022/09/17 00:04:03;;;;;;;2.08;0.10;;;;;;;13.61;72.55;99681.19;4823872;29;20026;-77
2022/09/17 00:06:29;;;;;;;0.05;0.05;;;;;;;13.78;73.29;99705.50;4822995;29;20038;-77
2022/09/17 00:08:55;;;;;;;0.45;0.10;;;;;;;13.76;73.34;99713.03;4841719;29;20433;-78
2022/09/17 00:11:26;;;;;;;0.10;0.10;;;;;;;13.68;72.37;99721.56;4841330;29;20049;-77
2022/09/17 00:13:53;;;;;;;0.10;0.10;;;;;;;13.72;73.13;99701.88;4826123;29;20361;-77
2022/09/17 00:16:33;;;;;;;0.40;0.10;;;;;;;13.81;73.50;99705.00;4825974;29;20414;-78
2022/09/17 00:19:00;;;;;;;2.00;0.17;;;;;;;13.59;73.18;99681.41;4825454;29;20026;-78
2022/09/17 00:21:26;;;;;;;0.60;0.10;;;;;;;13.75;72.68;99705.97;4826166;29;20040;-78
2022/09/17 00:23:57;;;;;;;0.15;0.10;;;;;;;13.72;72.78;99701.88;4817111;29;20061;-77
2022/09/17 00:26:22;;;;;;;0.10;0.10;;;;;;;13.49;73.53;99696.66;4826257;29;20022;-77
2022/09/17 00:28:53;;;;;;;1.55;0.10;;;;;;;13.49;73.69;99694.75;4841451;29;20528;-77
2022/09/17 00:31:19;;;;;;;0.10;0.10;;;;;;;13.62;74.18;99717.94;4841388;29;20441;-77
2022/09/17 00:33:44;;;;;;;0.10;0.10;;;;;;;13.65;74.49;99711.22;4842067;29;20109;-78
2022/09/17 00:36:10;;;;;;;0.00;0.00;;;;;;;13.45;76.31;99707.13;4819397;29;20429;-78
2022/09/17 00:38:36;;;;;;;0.00;0.00;;;;;;;13.49;75.98;99712.88;4831473;29;20038;-77
2022/09/17 00:41:03;;;;;;;0.10;0.10;;;;;;;13.47;77.67;99726.59;4845935;29;20053;-77
2022/09/17 00:43:40;;;;;;;0.10;0.10;;;;;;;13.39;77.41;99713.50;4844734;29;20069;-77
2022/09/17 00:46:31;;;;;;;0.40;0.10;;;;;;;13.33;77.51;99703.66;4845821;29;20030;-77
2022/09/17 00:49:00;;;;;;;0.10;0.10;;;;;;;13.45;77.04;99739.56;4830910;29;20905;-77
2022/09/17 00:51:59;;;;;;;2.10;0.10;;;;;;;13.43;75.88;99730.88;4845699;29;20052;-77
2022/09/17 00:54:25;;;;;;;2.20;0.10;;;;;;;13.38;76.66;99701.06;4845972;29;20471;-77
2022/09/17 00:56:51;;;;;;;0.10;0.10;;;;;;;13.34;76.90;99718.81;4845507;29;20033;-78
2022/09/17 00:59:18;;;;;;;1.75;0.10;;;;;;;13.45;75.15;99733.34;4846181;29;20109;-78
2022/09/17 01:01:44;;;;;;;1.05;0.10;;;;;;;13.13;75.36;99706.81;4844234;29;20065;-77
2022/09/17 01:04:17;;;;;;;0.15;0.10;;;;;;;13.38;74.81;99730.78;4845115;29;20057;-78
2022/09/17 01:07:12;;;;;;;0.52;0.10;;;;;;;13.41;74.63;99749.22;4844127;29;20050;-77
2022/09/17 01:09:56;;;;;;;0.10;0.10;;;;;;;13.29;74.78;99743.88;4832462;29;20392;-77
2022/09/17 01:13:02;;;;;;;0.13;0.10;;;;;;;13.30;74.57;99747.38;4836212;29;20099;-78
2022/09/17 01:15:37;;;;;;;0.15;0.10;;;;;;;13.29;75.42;99749.28;4839773;29;20044;-77
2022/09/17 01:18:12;;;;;;;1.00;0.10;;;;;;;13.29;75.79;99746.56;4844992;29;20515;-77
2022/09/17 01:20:58;;;;;;;0.20;0.10;;;;;;;13.20;75.45;99747.16;4841780;29;20044;-77
2022/09/17 01:23:52;;;;;;;0.10;0.10;;;;;;;13.23;76.19;99746.69;4845723;29;20101;-77
2022/09/17 01:26:42;;;;;;;0.63;0.10;;;;;;;13.16;75.71;99757.63;4844350;29;20414;-77
2022/09/17 01:29:44;;;;;;;0.10;0.10;;;;;;;13.05;76.66;99766.63;4843849;29;20040;-77
2022/09/17 01:32:35;;;;;;;0.20;0.10;;;;;;;13.05;76.58;99762.03;4845151;29;20037;-77
2022/09/17 01:35:13;;;;;;;0.10;0.10;;;;;;;12.92;76.72;99746.94;4826459;29;20025;-77
2022/09/17 01:38:00;;;;;;;0.28;0.10;;;;;;;13.01;77.09;99773.53;4826694;29;20385;-77
2022/09/17 01:40:37;;;;;;;1.33;0.10;;;;;;;12.98;76.76;99774.03;4809831;29;20125;-77
2022/09/17 01:43:23;;;;;;;0.55;0.20;;;;;;;12.94;77.26;99760.19;4811507;29;20066;-77
2022/09/17 01:46:13;;;;;;;1.23;0.10;;;;;;;12.83;77.17;99742.16;4844640;29;20085;-77
2022/09/17 01:48:43;;;;;;;0.30;0.10;;;;;;;12.83;77.47;99750.25;4843318;29;20026;-77
2022/09/17 01:51:21;;;;;;;0.17;0.10;;;;;;;12.91;77.23;99780.41;4827782;29;20030;-77
2022/09/17 01:53:59;;;;;;;0.28;0.10;;;;;;;12.62;78.87;99736.34;4844144;29;20515;-77
2022/09/17 01:56:34;;;;;;;0.30;0.10;;;;;;;12.85;77.51;99772.44;4842650;29;20361;-77
2022/09/17 01:59:19;;;;;;;0.55;0.20;;;;;;;12.89;77.90;99779.00;4844969;29;20021;-77
2022/09/17 02:01:50;;;;;;;0.65;0.10;;;;;;;12.68;78.02;99746.19;4835365;29;20026;-77
2022/09/17 02:04:25;;;;;;;0.10;0.10;;;;;;;12.75;79.15;99767.66;4843624;29;20053;-77
2022/09/17 02:06:59;;;;;;;0.38;0.10;;;;;;;12.82;78.65;99770.22;4826516;29;20120;-77
2022/09/17 02:09:45;;;;;;;0.47;0.10;;;;;;;12.67;78.41;99759.91;4829026;29;20033;-77
2022/09/17 02:12:17;;;;;;;0.30;0.20;;;;;;;12.74;78.22;99759.78;4827858;29;20270;-77
2022/09/17 02:14:50;;;;;;;0.52;0.20;;;;;;;12.76;79.12;99774.69;4844954;29;20467;-77
2022/09/17 02:17:22;;;;;;;2.60;0.17;;;;;;;12.57;79.67;99763.22;4842003;29;20029;-77
2022/09/17 02:19:48;;;;;;;0.95;0.10;;;;;;;12.72;78.34;99783.50;4828929;29;20038;-78
2022/09/17 02:22:24;;;;;;;0.45;0.10;;;;;;;12.68;79.47;99761.53;4812311;29;20033;-78
2022/09/17 02:24:52;;;;;;;0.25;0.10;;;;;;;12.77;79.34;99783.59;4844203;29;20057;-78
2022/09/17 02:27:38;;;;;;;0.50;0.10;;;;;;;12.73;80.17;99777.84;4842270;29;20033;-77
2022/09/17 02:30:04;;;;;;;0.10;0.10;;;;;;;12.68;79.53;99778.59;4798318;29;20084;-77
2022/09/17 02:32:30;;;;;;;0.20;0.00;;;;;;;12.72;79.01;99778.09;4794135;29;20087;-77
2022/09/17 02:34:55;;;;;;;0.52;0.20;;;;;;;12.67;79.51;99782.31;4836719;29;20026;-77
2022/09/17 02:37:21;;;;;;;0.57;0.10;;;;;;;12.70;80.05;99781.03;4842883;29;20498;-77
2022/09/17 02:39:46;;;;;;;0.20;0.10;;;;;;;12.73;80.09;99774.34;4840069;29;20032;-78
2022/09/17 02:42:21;;;;;;;0.35;0.10;;;;;;;12.69;79.24;99757.81;4840551;29;20041;-78
2022/09/17 02:45:11;;;;;;;0.38;0.10;;;;;;;12.64;78.96;99781.97;4843817;29;20034;-78
2022/09/17 02:47:50;;;;;;;0.57;0.10;;;;;;;12.65;78.04;99772.84;4842095;29;20018;-77
2022/09/17 02:50:50;;;;;;;0.30;0.10;;;;;;;12.67;78.38;99787.72;4844290;29;20113;-77
2022/09/17 02:53:33;;;;;;;0.40;0.10;;;;;;;12.73;77.63;99785.97;4840110;29;20025;-78
2022/09/17 02:56:24;;;;;;;0.50;0.10;;;;;;;12.74;78.81;99786.78;4843355;29;20030;-77
2022/09/17 02:59:01;;;;;;;0.43;0.10;;;;;;;12.69;78.18;99774.81;4842701;29;20030;-77
2022/09/17 03:01:40;;;;;;;0.38;0.10;;;;;;;12.54;79.27;99770.97;4827509;29;20578;-77
2022/09/17 03:04:10;;;;;;;0.20;0.10;;;;;;;12.50;79.09;99756.31;4842415;29;20030;-78
2022/09/17 03:06:37;;;;;;;1.02;0.10;;;;;;;12.64;78.96;99780.09;4843404;29;20040;-77
2022/09/17 03:09:02;;;;;;;1.73;0.10;;;;;;;12.70;77.76;99795.34;4803594;29;20439;-77
2022/09/17 03:11:28;;;;;;;0.47;0.10;;;;;;;12.67;78.10;99782.31;4809537;29;20058;-77
2022/09/17 03:13:53;;;;;;;0.63;0.15;;;;;;;12.55;79.06;99773.44;4807651;29;20035;-77
2022/09/17 03:16:18;;;;;;;1.02;0.10;;;;;;;12.63;78.80;99794.66;4816052;29;21713;-77
2022/09/17 03:18:44;;;;;;;0.60;0.20;;;;;;;12.56;79.01;99791.28;4824552;29;20121;-77
2022/09/17 03:21:11;;;;;;;0.85;0.10;;;;;;;12.39;79.76;99766.91;4824225;29;20132;-77
2022/09/17 03:23:36;;;;;;;0.95;0.10;;;;;;;12.54;79.39;99797.94;4824470;29;20022;-77
2022/09/17 03:26:01;;;;;;;0.57;0.00;;;;;;;12.49;78.64;99779.78;4825003;29;20429;-77
2022/09/17 03:28:27;;;;;;;1.50;0.05;;;;;;;12.50;79.33;99796.78;4822674;29;20046;-77
2022/09/17 03:30:52;;;;;;;2.40;0.40;;;;;;;12.46;79.72;99794.56;4827099;29;20078;-78
2022/09/17 03:33:18;;;;;;;0.20;0.10;;;;;;;12.41;80.58;99789.03;4830570;29;20038;-77
2022/09/17 03:35:45;;;;;;;0.20;0.10;;;;;;;12.41;80.56;99793.63;4827978;29;20055;-77
2022/09/17 03:38:11;;;;;;;1.48;0.25;;;;;;;12.46;80.93;99796.44;4824873;29;20038;-77
2022/09/17 03:40:36;;;;;;;1.33;0.17;;;;;;;12.23;79.32;99773.81;4824001;29;20106;-77
2022/09/17 03:43:02;;;;;;;0.35;0.20;;;;;;;12.48;79.94;99799.72;4803753;29;20469;-77
2022/09/17 03:45:27;;;;;;;0.35;0.10;;;;;;;12.33;79.48;99785.91;4825049;29;20095;-77
2022/09/17 03:47:52;;;;;;;0.20;0.00;;;;;;;12.38;79.74;99808.44;4822848;29;20042;-77
2022/09/17 03:50:18;;;;;;;0.35;0.20;;;;;;;11.95;81.41;99741.34;4822733;29;20058;-77
2022/09/17 03:52:43;;;;;;;0.30;0.10;;;;;;;12.32;80.53;99800.44;4824255;29;20121;-77
2022/09/17 03:55:10;;;;;;;0.10;0.10;;;;;;;12.33;82.10;99805.59;4822916;29;20099;-77
2022/09/17 03:57:35;;;;;;;0.15;0.10;;;;;;;12.31;81.45;99793.41;4824660;29;20046;-77
2022/09/17 04:00:01;;;;;;;0.10;0.10;;;;;;;12.26;80.84;99798.69;4822016;29;20034;-77
2022/09/17 04:02:26;;;;;;;0.30;0.20;;;;;;;12.20;80.50;99798.56;4819499;29;20450;-77
2022/09/17 04:04:52;;;;;;;0.45;0.10;;;;;;;12.20;80.34;99790.47;4806199;29;20045;-77
2022/09/17 04:07:18;;;;;;;0.10;0.10;;;;;;;12.30;80.26;99807.94;4804751;29;20142;-77
2022/09/17 04:09:43;;;;;;;0.80;0.10;;;;;;;12.21;80.35;99794.78;4815275;29;20218;-77
2022/09/17 04:12:09;;;;;;;0.35;0.10;;;;;;;12.16;80.11;99780.41;4824245;29;20035;-77
2022/09/17 04:14:34;;;;;;;0.20;0.20;;;;;;;12.17;79.72;99788.25;4821942;29;20066;-77
2022/09/17 04:16:59;;;;;;;0.45;0.20;;;;;;;12.15;80.06;99786.81;4823611;29;20051;-77
2022/09/17 04:19:25;;;;;;;0.20;0.10;;;;;;;12.25;79.53;99797.03;4807713;29;20038;-77
2022/09/17 04:21:51;;;;;;;0.20;0.10;;;;;;;12.27;80.39;99793.03;4823337;29;20464;-77
2022/09/17 04:24:17;;;;;;;1.33;0.20;;;;;;;12.20;81.56;99786.97;4811186;29;20106;-77
2022/09/17 04:26:42;;;;;;;0.68;0.10;;;;;;;12.26;80.59;99804.09;4804201;29;20031;-77
2022/09/17 04:29:08;;;;;;;1.20;0.20;;;;;;;12.27;80.48;99803.84;4808832;29;20469;-77
2022/09/17 04:31:34;;;;;;;0.10;0.10;;;;;;;12.27;79.74;99809.22;4824059;29;20594;-77
2022/09/17 04:33:59;;;;;;;0.95;0.13;;;;;;;12.30;80.91;99806.06;4823759;29;20038;-77
2022/09/17 04:36:25;;;;;;;0.47;0.10;;;;;;;12.21;80.24;99800.19;4807460;29;20126;-78
2022/09/17 04:38:50;;;;;;;0.75;0.38;;;;;;;12.27;79.92;99811.94;4822911;29;20052;-77
2022/09/17 04:41:15;;;;;;;1.75;0.10;;;;;;;12.25;79.72;99805.13;4822412;29;20481;-77
2022/09/17 04:43:41;;;;;;;0.10;0.10;;;;;;;12.25;78.30;99802.41;4823751;29;20026;-77
2022/09/17 04:46:06;;;;;;;2.67;0.10;;;;;;;12.33;78.64;99813.69;4807616;29;20031;-77
2022/09/17 04:48:32;;;;;;;0.10;0.08;;;;;;;12.35;78.80;99808.91;4823707;29;20038;-77
2022/09/17 04:50:57;;;;;;;0.60;0.13;;;;;;;12.27;78.50;99790.34;4822008;29;20122;-77
2022/09/17 04:53:22;;;;;;;1.17;0.10;;;;;;;12.41;78.96;99817.91;4824032;29;20422;-77
2022/09/17 04:55:48;;;;;;;0.00;0.00;;;;;;;12.39;78.60;99822.72;4823772;29;20031;-77
2022/09/17 04:58:13;;;;;;;0.85;0.10;;;;;;;12.38;77.26;99818.38;4792059;29;20150;-77
2022/09/17 05:00:39;;;;;;;0.50;0.10;;;;;;;12.31;78.01;99809.59;4822122;29;20047;-77
2022/09/17 05:03:04;;;;;;;0.25;0.10;;;;;;;12.44;78.24;99814.75;4808537;29;20125;-77
2022/09/17 05:05:29;;;;;;;0.20;0.10;;;;;;;12.46;79.42;99818.03;4820228;29;20038;-77
2022/09/17 05:07:55;;;;;;;0.10;0.10;;;;;;;12.43;77.24;99824.72;4804270;29;20075;-78
2022/09/17 05:10:21;;;;;;;0.43;0.10;;;;;;;12.54;76.78;99825.75;4803855;29;20556;-77
2022/09/17 05:12:51;;;;;;;0.40;0.10;;;;;;;13.17;73.85;99833.03;4805864;29;20035;-77
2022/09/17 05:15:17;;;;;;;0.08;0.08;;;;;;;13.78;70.58;99835.28;4816423;29;20026;-77
2022/09/17 05:17:42;;;;;;;0.70;0.10;;;;;;;13.94;68.90;99831.78;4822555;29;20049;-77
2022/09/17 05:20:08;;;;;;;0.63;0.10;;;;;;;13.32;71.69;99835.25;4822792;29;20094;-78
2022/09/17 05:22:34;;;;;;;1.42;0.10;;;;;;;12.92;72.45;99832.53;4821716;29;20058;-78
2022/09/17 05:24:59;;;;;;;0.28;0.10;;;;;;;12.83;74.40;99845.56;4825620;29;20034;-77
2022/09/17 05:27:24;;;;;;;0.70;0.08;;;;;;;12.81;74.65;99844.97;4829819;29;20360;-77
2022/09/17 05:29:50;;;;;;;0.38;0.10;;;;;;;12.64;76.07;99809.78;4829622;29;20038;-78
2022/09/17 05:32:16;;;;;;;0.10;0.00;;;;;;;12.71;73.82;99836.66;4833635;29;20036;-77
2022/09/17 05:34:41;;;;;;;0.55;0.30;;;;;;;12.78;75.08;99834.66;4814060;29;20129;-77
2022/09/17 05:37:10;;;;;;;0.95;0.10;;;;;;;12.93;74.23;99834.97;4827747;29;20077;-79
2022/09/17 05:39:35;;;;;;;0.13;0.10;;;;;;;12.94;73.62;99852.81;4826167;29;20026;-77
2022/09/17 05:42:01;;;;;;;3.20;0.10;;;;;;;12.88;72.44;99844.84;4827322;29;20034;-77
2022/09/17 05:44:26;;;;;;;0.15;0.03;;;;;;;13.06;72.85;99843.88;4822946;29;20066;-77
2022/09/17 05:46:52;;;;;;;0.63;0.10;;;;;;;13.04;73.81;99852.19;4805433;29;20034;-78
2022/09/17 05:49:17;;;;;;;0.65;0.10;;;;;;;13.08;73.43;99853.38;4809853;29;20038;-77
2022/09/17 05:51:43;;;;;;;0.10;0.10;;;;;;;13.15;72.84;99848.66;4823335;29;20094;-77
2022/09/17 05:54:08;;;;;;;0.43;0.10;;;;;;;13.19;72.55;99856.28;4803442;29;20046;-77
2022/09/17 05:56:34;;;;;;;0.10;0.10;;;;;;;13.19;74.13;99853.59;4795047;29;20072;-78
2022/09/17 05:58:59;;;;;;;0.65;0.10;;;;;;;13.08;72.73;99845.28;4825705;29;20038;-78
2022/09/17 06:01:25;;;;;;;0.65;0.10;;;;;;;13.24;72.30;99873.44;4825127;29;20034;-76
2022/09/17 06:03:50;;;;;;;0.28;0.10;;;;;;;13.20;71.09;99876.84;4810614;29;20048;-77
2022/09/17 06:06:16;;;;;;;1.90;0.10;;;;;;;12.88;71.64;99815.13;4807273;29;20118;-77
2022/09/17 06:08:41;;;;;;;0.47;0.10;;;;;;;13.15;72.34;99847.84;4823634;29;20062;-78
2022/09/17 06:11:08;;;;;;;0.10;0.00;;;;;;;13.33;71.56;99854.97;4823693;29;20044;-77
2022/09/17 06:13:34;;;;;;;0.30;0.00;;;;;;;13.21;71.49;99851.44;4822451;29;20468;-76
2022/09/17 06:16:00;;;;;;;0.10;0.05;;;;;;;13.46;70.64;99868.19;4824521;29;20040;-76
2022/09/17 06:18:28;;;;;;;0.20;0.10;;;;;;;13.43;70.40;99878.69;4825183;29;20041;-76
2022/09/17 06:20:55;;;;;;;0.30;0.10;;;;;;;13.35;69.63;99853.69;4823718;29;20086;-77
2022/09/17 06:23:21;;;;;;;0.13;0.10;;;;;;;13.43;69.75;99875.97;4822013;29;20034;-77
2022/09/17 06:25:54;;;;;;;0.00;0.00;;;;;;;13.39;69.37;99862.13;4822319;29;20041;-77
2022/09/17 06:28:19;;;;;;;1.40;0.20;;;;;;;13.45;69.70;99866.56;4811761;29;20058;-77
2022/09/17 06:30:45;;;;;;;0.63;0.15;;;;;;;13.56;70.44;99875.69;4824511;29;20069;-77
2022/09/17 06:33:10;;;;;;;0.10;0.10;;;;;;;13.34;69.32;99849.34;4824243;29;20149;-77
2022/09/17 06:35:35;;;;;;;0.30;0.10;;;;;;;13.46;69.95;99870.91;4824939;29;20373;-77
2022/09/17 06:38:03;;;;;;;0.00;0.00;;;;;;;13.45;68.88;99865.75;4824933;29;20368;-78
2022/09/17 06:40:28;;;;;;;0.65;0.25;;;;;;;13.48;68.14;99855.28;4826358;29;20167;-78
2022/09/17 06:42:58;;;;;;;0.00;0.00;;;;;;;13.58;67.36;99877.09;4824518;29;20393;-77
2022/09/17 06:45:25;;;;;;;0.25;0.10;;;;;;;13.69;67.46;99882.69;4824769;29;20125;-78
2022/09/17 06:47:51;;;;;;;0.45;0.10;;;;;;;13.74;67.95;99883.63;4826381;29;20030;-77
2022/09/17 06:50:16;;;;;;;1.08;0.20;;;;;;;13.81;68.50;99888.88;4824054;29;20121;-78
2022/09/17 06:52:53;;;;;;;0.10;0.00;;;;;;;13.67;67.48;99857.75;4806956;29;20047;-78
2022/09/17 06:55:19;;;;;;;0.20;0.00;;;;;;;13.90;66.80;99881.16;4806401;29;20095;-78
2022/09/17 06:57:45;;;;;;;0.20;0.00;;;;;;;13.79;66.84;99890.97;4806798;29;20035;-78
2022/09/17 07:00:11;;;;;;;0.22;0.10;;;;;;;13.86;66.07;99892.47;4814243;29;20042;-78
2022/09/17 07:02:36;;;;;;;0.32;0.10;;;;;;;13.85;66.27;99885.44;4791280;29;20039;-77
2022/09/17 07:05:02;;;;;;;0.28;0.10;;;;;;;13.93;66.89;99894.19;4807989;29;20037;-78
2022/09/17 07:07:28;;;;;;;0.00;0.00;;;;;;;13.95;64.84;99873.16;4830053;29;20123;-77
2022/09/17 07:09:53;;;;;;;0.10;0.00;;;;;;;13.98;64.29;99878.88;4824903;29;20045;-77
2022/09/17 07:12:20;;;;;;;0.32;0.03;;;;;;;14.17;63.48;99886.75;4844238;29;20535;-78
2022/09/17 07:14:46;;;;;;;1.45;0.10;;;;;;;14.23;62.45;99878.47;4843675;29;20105;-77
2022/09/17 07:17:12;;;;;;;0.70;0.00;;;;;;;14.17;61.76;99884.91;4842699;29;20081;-77
2022/09/17 07:19:38;;;;;;;0.40;0.10;;;;;;;14.17;63.07;99871.38;4836194;29;20509;-77
2022/09/17 07:22:03;;;;;;;0.30;0.10;;;;;;;14.15;61.75;99872.69;4809585;29;20034;-77
2022/09/17 07:24:28;;;;;;;0.10;0.10;;;;;;;14.32;62.17;99890.53;4843959;29;20044;-76
2022/09/17 07:26:54;;;;;;;0.20;0.08;;;;;;;14.38;60.87;99888.75;4831810;29;20425;-81
2022/09/17 07:29:22;;;;;;;0.65;0.10;;;;;;;14.31;60.49;99883.50;4830032;29;20037;-80
2022/09/17 07:31:47;;;;;;;0.00;0.00;;;;;;;14.31;60.22;99888.91;4844697;29;20029;-78
2022/09/17 07:34:13;;;;;;;1.27;0.10;;;;;;;14.62;60.33;99888.59;4811554;29;20392;-78
2022/09/17 07:36:38;;;;;;;0.00;0.00;;;;;;;14.63;60.13;99879.41;4827351;29;20046;-77
2022/09/17 07:39:03;;;;;;;1.35;0.10;;;;;;;14.75;59.86;99889.06;4820400;29;20452;-77
2022/09/17 07:41:29;;;;;;;0.10;0.10;;;;;;;14.60;58.94;99885.31;4811293;29;20033;-78
2022/09/17 07:43:54;;;;;;;0.38;0.10;;;;;;;14.70;57.44;99886.28;4828502;29;20121;-77
2022/09/17 07:46:20;;;;;;;0.20;0.10;;;;;;;14.78;57.69;99904.00;4826321;29;20106;-79
2022/09/17 07:48:47;;;;;;;0.10;0.10;;;;;;;14.78;56.20;99880.44;4831902;29;20391;-78
2022/09/17 07:51:21;;;;;;;0.30;0.10;;;;;;;14.85;56.48;99877.56;4825457;29;20038;-78
2022/09/17 07:53:50;;;;;;;0.10;0.10;;;;;;;14.89;57.82;99867.03;4825522;29;20227;-79
2022/09/17 07:56:15;;;;;;;0.85;0.10;;;;;;;15.00;57.08;99888.59;4829371;29;20069;-78
2022/09/17 07:58:41;;;;;;;0.25;0.17;;;;;;;15.24;56.09;99901.91;4815901;29;20361;-78
2022/09/17 08:01:08;;;;;;;0.17;0.10;;;;;;;15.33;56.37;99899.56;4798407;29;20465;-79
2022/09/17 08:03:35;;;;;;;0.25;0.10;;;;;;;15.39;57.00;99893.13;4843500;29;20025;-78
2022/09/17 08:06:05;;;;;;;0.35;0.10;;;;;;;15.34;56.40;99882.25;4805748;29;20093;-78
2022/09/17 08:08:32;;;;;;;0.00;0.00;;;;;;;15.41;55.63;99893.72;4827154;29;20534;-78
2022/09/17 08:11:03;;;;;;;0.77;0.10;;;;;;;15.12;53.32;99909.34;4825835;29;20045;-79
2022/09/17 08:13:28;;;;;;;2.65;0.10;;;;;;;15.43;54.52;99899.69;4841380;29;20384;-78
2022/09/17 08:16:00;;;;;;;0.08;0.00;;;;;;;15.46;53.49;99899.19;4827003;29;20042;-78
2022/09/17 08:18:26;;;;;;;0.73;0.10;;;;;;;15.40;54.12;99906.47;4842326;29;20030;-78
2022/09/17 08:21:04;;;;;;;0.00;0.00;;;;;;;15.22;53.43;99893.22;4840698;29;20046;-78
2022/09/17 08:23:30;;;;;;;1.33;0.03;;;;;;;15.27;53.36;99885.97;4842293;29;20030;-78
2022/09/17 08:25:58;;;;;;;0.10;0.10;;;;;;;15.42;52.91;99903.47;4824065;29;20247;-78
2022/09/17 08:28:25;;;;;;;0.10;0.10;;;;;;;15.45;53.44;99906.50;4831197;29;20026;-78
2022/09/17 08:30:51;;;;;;;0.10;0.10;;;;;;;15.49;52.70;99898.69;4823884;29;20061;-78
2022/09/17 08:33:17;;;;;;;2.38;0.10;;;;;;;15.56;53.29;99904.72;4817552;29;20036;-78
2022/09/17 08:35:51;;;;;;;0.00;0.00;;;;;;;15.56;53.32;99907.44;4842197;29;20101;-78
2022/09/17 08:38:17;;;;;;;0.20;0.00;;;;;;;15.40;53.40;99879.34;4824819;29;20374;-78
2022/09/17 08:41:06;;;;;;;0.10;0.10;;;;;;;15.61;54.03;99893.13;4842301;29;20052;-78
2022/09/17 08:43:41;;;;;;;0.30;0.10;;;;;;;15.52;52.75;99863.75;4841080;29;20033;-78
2022/09/17 08:46:09;;;;;;;0.13;0.10;;;;;;;15.58;52.24;99871.94;4842238;29;20022;-78
2022/09/17 08:48:50;;;;;;;2.60;0.13;;;;;;;15.59;52.18;99870.84;4830200;29;20038;-78
2022/09/17 08:51:41;;;;;;;0.10;0.10;;;;;;;15.79;53.55;99911.78;4841830;29;20026;-78
2022/09/17 08:54:26;;;;;;;0.32;0.10;;;;;;;15.84;52.39;99908.31;4839094;29;20022;-78
2022/09/17 08:57:16;;;;;;;0.05;0.00;;;;;;;15.92;53.23;99897.81;4840207;29;20041;-78
2022/09/17 09:00:07;;;;;;;0.20;0.10;;;;;;;15.93;51.99;99915.75;4833893;29;20053;-78
2022/09/17 09:02:48;;;;;;;0.20;0.10;;;;;;;15.73;51.15;99923.69;4828507;29;20030;-78
2022/09/17 09:05:24;;;;;;;0.28;0.10;;;;;;;15.75;51.08;99902.53;4826833;29;20034;-78
2022/09/17 09:07:53;;;;;;;0.10;0.10;;;;;;;15.66;51.46;99942.84;4844888;29;20133;-78
2022/09/17 09:10:26;;;;;;;0.75;0.13;;;;;;;15.54;51.52;99939.41;4845578;29;20056;-78
2022/09/17 09:12:55;;;;;;;0.20;0.10;;;;;;;15.39;51.37;99893.13;4828985;29;20464;-79
2022/09/17 09:15:53;;;;;;;1.65;0.10;;;;;;;15.73;52.38;99927.19;4840081;29;20034;-78
2022/09/17 09:18:28;;;;;;;0.22;0.13;;;;;;;15.68;51.38;99908.16;4834974;29;20113;-78
2022/09/17 09:21:02;;;;;;;0.22;0.10;;;;;;;15.82;50.93;99902.31;4845334;29;20032;-78
2022/09/17 09:23:57;;;;;;;1.35;0.20;;;;;;;16.06;51.91;99921.81;4828314;29;20033;-78
2022/09/17 09:26:47;;;;;;;0.10;0.10;;;;;;;15.98;51.17;99913.06;4829595;29;20079;-78
2022/09/17 09:29:16;;;;;;;0.20;0.10;;;;;;;16.09;52.45;99930.28;4830922;29;20049;-78
2022/09/17 09:31:59;;;;;;;0.40;0.10;;;;;;;16.06;50.89;99924.53;4828964;29;20049;-80
2022/09/17 09:34:27;;;;;;;0.55;0.10;;;;;;;15.95;49.90;99907.34;4844186;29;20049;-78
2022/09/17 09:37:05;;;;;;;0.10;0.10;;;;;;;16.03;49.98;99912.31;4827202;29;20459;-78
2022/09/17 09:39:35;;;;;;;0.43;0.10;;;;;;;16.09;50.56;99899.59;4845836;29;20523;-77
2022/09/17 09:42:28;;;;;;;0.00;0.00;;;;;;;16.09;50.07;99918.59;4840795;29;20593;-78
2022/09/17 09:44:58;;;;;;;0.30;0.08;;;;;;;15.78;50.28;99850.47;4813673;29;20052;-79
2022/09/17 09:48:02;;;;;;;0.10;0.10;;;;;;;16.27;49.40;99910.06;4845319;29;20033;-78
2022/09/17 09:50:49;;;;;;;0.10;0.10;;;;;;;16.39;49.60;99918.03;4800938;29;20038;-78
2022/09/17 09:53:26;;;;;;;0.10;0.10;;;;;;;16.48;49.57;99918.38;4844144;29;20515;-78
2022/09/17 09:56:29;;;;;;;0.63;0.00;;;;;;;16.53;48.94;99924.69;4842087;29;20531;-79
2022/09/17 09:58:54;;;;;;;0.10;0.10;;;;;;;16.44;49.52;99927.03;4830343;29;20037;-79
2022/09/17 10:01:20;;;;;;;0.10;0.10;;;;;;;16.40;49.16;99917.78;4837167;29;20044;-80
2022/09/17 10:03:47;;;;;;;3.60;0.28;;;;;;;16.72;52.52;99921.53;4830048;29;20030;-78
2022/09/17 10:06:14;;;;;;;3.20;0.30;;;;;;;16.58;54.63;99894.03;4837494;29;20026;-78
2022/09/17 10:08:43;;;;;;;3.72;0.50;;;;;;;16.74;57.29;99912.06;4825902;29;20077;-79
2022/09/17 10:11:12;;;;;;;1.15;0.25;;;;;;;16.58;55.73;99916.56;4849610;29;20034;-79
2022/09/17 10:13:39;;;;;;;1.75;0.30;;;;;;;16.54;57.51;99898.34;4847375;29;20029;-80
2022/09/17 10:16:29;;;;;;;1.10;0.10;;;;;;;16.35;56.79;99879.72;4853476;29;20063;-79
2022/09/17 10:19:06;;;;;;;1.33;0.20;;;;;;;16.37;57.60;99921.03;4856085;29;20059;-81
2022/09/17 10:21:42;;;;;;;2.03;0.22;;;;;;;16.30;58.38;99887.84;4858041;29;20217;-81
2022/09/17 10:24:30;;;;;;;2.08;0.30;;;;;;;16.39;57.55;99910.72;4851268;29;20065;-79
2022/09/17 10:27:13;;;;;;;1.17;0.30;;;;;;;16.25;57.37;99901.38;4855244;29;20026;-80
2022/09/17 10:29:47;;;;;;;0.77;0.30;;;;;;;15.83;56.14;99822.59;4846353;29;20042;-80
2022/09/17 10:32:21;;;;;;;1.48;0.30;;;;;;;16.25;57.81;99914.94;4856774;29;20070;-80
2022/09/17 10:35:17;;;;;;;1.08;0.30;;;;;;;16.22;58.03;99901.88;4864724;29;20034;-82
2022/09/17 10:37:49;;;;;;;1.55;0.20;;;;;;;16.20;58.47;99896.72;4846420;29;20045;-80
2022/09/17 10:40:17;;;;;;;2.60;0.40;;;;;;;16.21;58.84;99902.97;4846090;29;20037;-79
2022/09/17 10:42:47;;;;;;;2.72;0.32;;;;;;;16.28;59.50;99903.56;4845448;29;20040;-80
2022/09/17 10:45:26;;;;;;;0.93;0.30;;;;;;;16.27;58.20;99887.56;4851526;29;20038;-80
2022/09/17 10:47:53;;;;;;;1.30;0.20;;;;;;;16.25;57.77;99906.78;4857534;29;20041;-80
2022/09/17 10:50:23;;;;;;;0.85;0.30;;;;;;;16.30;58.93;99904.13;4838470;29;20177;-79
2022/09/17 10:52:53;;;;;;;1.75;0.38;;;;;;;16.26;61.43;99891.31;4848186;29;20473;-80
2022/09/17 10:55:56;;;;;;;1.77;0.30;;;;;;;16.10;60.34;99888.50;4835693;29;21306;-79
2022/09/17 10:58:48;;;;;;;0.60;0.30;;;;;;;16.23;62.12;99917.09;4848832;29;20045;-79
2022/09/17 11:01:22;;;;;;;1.95;0.30;;;;;;;16.03;61.18;99887.91;4812793;29;20046;-79
2022/09/17 11:03:47;;;;;;;2.55;0.43;;;;;;;16.20;61.43;99910.28;4833002;29;20548;-79
2022/09/17 11:06:18;;;;;;;1.17;0.20;;;;;;;16.19;60.78;99921.38;4843939;29;20126;-79
2022/09/17 11:09:09;;;;;;;2.13;0.25;;;;;;;16.19;61.54;99913.25;4852523;29;20058;-80
2022/09/17 11:12:03;;;;;;;1.63;0.50;;;;;;;16.23;62.37;99919.00;4833537;29;20098;-80
2022/09/17 11:14:32;;;;;;;2.55;0.40;;;;;;;16.18;63.75;99920.56;4850049;29;20030;-81
2022/09/17 11:17:12;;;;;;;1.00;0.20;;;;;;;16.00;61.85;99899.25;4849017;29;20026;-81
2022/09/17 11:19:54;;;;;;;2.25;0.30;;;;;;;16.21;61.33;99911.09;4835815;29;20057;-80
2022/09/17 11:22:41;;;;;;;4.68;0.40;;;;;;;15.99;60.53;99894.88;4849685;29;20038;-81
2022/09/17 11:25:24;;;;;;;1.83;0.20;;;;;;;16.06;61.70;99908.25;4839758;29;20121;-79
2022/09/17 11:28:06;;;;;;;1.20;0.32;;;;;;;16.24;64.19;99910.59;4828058;29;20022;-78
2022/09/17 11:30:58;;;;;;;3.85;0.45;;;;;;;16.30;63.52;99920.44;4840588;29;20117;-77
2022/09/17 11:33:41;;;;;;;2.22;0.40;;;;;;;16.20;63.98;99923.06;4842528;29;20030;-78
2022/09/17 11:36:16;;;;;;;1.73;0.32;;;;;;;16.24;61.01;99921.44;4835921;29;20125;-78
2022/09/17 11:38:47;;;;;;;0.45;0.10;;;;;;;16.07;60.32;99896.34;4830556;29;20057;-79
2022/09/17 11:41:21;;;;;;;1.33;0.22;;;;;;;16.23;59.70;99924.44;4840293;29;20042;-79
2022/09/17 11:43:56;;;;;;;2.97;0.45;;;;;;;16.27;60.61;99926.38;4839797;29;20030;-79
2022/09/17 11:46:28;;;;;;;1.50;0.32;;;;;;;16.09;60.90;99900.44;4843806;29;20042;-79
2022/09/17 11:49:11;;;;;;;0.28;0.10;;;;;;;16.11;59.03;99898.25;4826900;29;20038;-79
2022/09/17 11:51:51;;;;;;;1.35;0.20;;;;;;;16.18;58.28;99904.28;4841985;29;20461;-79
2022/09/17 11:54:44;;;;;;;0.57;0.13;;;;;;;16.00;59.07;99884.88;4843336;29;20042;-79
2022/09/17 11:57:15;;;;;;;1.33;0.30;;;;;;;16.35;59.91;99933.22;4827331;29;20487;-79